Mengzi, China
Current Conditions -  °F | °C
As of 12:00 PM on Saturday 20 Dec 2014 (Local Time) from ZPPP Reporting Station
Haze Haze  
Wind Chill: 40°   Ceiling: Unl
Heat Index: 46°   Visibility: 3mi
Dew Point: 37°   Wind: 16mph
Humidity: 71%   Direction: 220°SW
Pressure: 30.21"   Gusts: NA
Location:  23.38°N, 103.38°E
Report Text: ZPPP 200400Z 22007MPS 5000 BR FEW005 08/03 Q1023 NOSIG
Loading
Personal Weather Stations






























Interactive Weather Map New forecast layout! Learn more

10-Day Weather Forecast

Advertisements
Track Severe Weather on mobile